createdAt,value
2017-01-16T00:00:43.203Z,2.18
2017-01-16T00:01:43.214Z,2.2
2017-01-16T00:02:43.221Z,2.15
2017-01-16T00:03:42.882Z,2.28
2017-01-16T00:04:43.243Z,2.29
2017-01-16T00:05:42.850Z,2.32
2017-01-16T00:06:43.263Z,2.2
2017-01-16T00:07:43.670Z,2.18
2017-01-16T00:08:43.285Z,2.28
2017-01-16T00:09:43.298Z,2.24
2017-01-16T00:10:43.708Z,2.24
2017-01-16T00:11:43.314Z,2.2
2017-01-16T00:12:43.727Z,2.28
2017-01-16T00:13:43.337Z,2.26
2017-01-16T00:14:42.946Z,2.28
2017-01-16T00:15:43.358Z,2.24
2017-01-16T00:16:42.972Z,2.25
2017-01-16T00:17:43.381Z,2.29
2017-01-16T00:18:43.791Z,2.24
2017-01-16T00:19:43.403Z,2.28
2017-01-16T00:20:43.013Z,2.26
2017-01-16T00:21:43.420Z,2.25
2017-01-16T00:22:43.435Z,2.36
2017-01-16T00:23:43.443Z,2.31
2017-01-16T00:24:43.058Z,2.29
2017-01-16T00:25:43.864Z,2.28
2017-01-16T00:26:43.480Z,2.28
2017-01-16T00:27:43.089Z,2.18
2017-01-16T00:28:43.129Z,2.18
2017-01-16T00:29:43.106Z,2.18
2017-01-16T00:30:43.122Z,2.22
2017-01-16T00:31:43.131Z,2.24
2017-01-16T00:32:43.541Z,2.2
2017-01-16T00:33:43.952Z,2.26
2017-01-16T00:34:43.560Z,2.26
2017-01-16T00:35:43.975Z,2.29
2017-01-16T00:36:43.584Z,2.24
2017-01-16T00:37:43.596Z,2.22
2017-01-16T00:38:44.002Z,2.28
2017-01-16T00:39:43.216Z,2.15
2017-01-16T00:40:43.224Z,2.26
2017-01-16T00:41:43.637Z,2.17
2017-01-16T00:42:43.647Z,2.25
2017-01-16T00:43:43.655Z,2.25
2017-01-16T00:44:43.278Z,2.15
2017-01-16T00:45:43.277Z,2.13
2017-01-16T00:46:43.692Z,2.25
2017-01-16T00:47:43.725Z,2.29
2017-01-16T00:48:43.713Z,2.28
2017-01-16T00:49:44.121Z,2.26
2017-01-16T00:50:43.334Z,2.32
2017-01-16T00:51:43.741Z,2.26
2017-01-16T00:52:43.754Z,2.24
2017-01-16T00:53:43.369Z,2.29
2017-01-16T00:54:43.380Z,2.26
2017-01-16T00:55:44.188Z,2.17
2017-01-16T00:56:43.795Z,2.24
2017-01-16T00:57:43.408Z,2.24
2017-01-16T00:58:44.218Z,2.25
2017-01-16T00:59:44.227Z,2.18
2017-01-16T01:00:43.446Z,2.14
2017-01-16T01:01:43.858Z,2.2
2017-01-16T01:02:44.259Z,2.2
2017-01-16T01:03:43.873Z,2.24
2017-01-16T01:04:43.884Z,2.17
2017-01-16T01:05:43.950Z,2.26
2017-01-16T01:06:43.908Z,2.15
2017-01-16T01:07:43.517Z,2.17
2017-01-16T01:08:43.925Z,2.13
2017-01-16T01:09:43.535Z,2.17
2017-01-16T01:10:43.998Z,2.22
2017-01-16T01:11:43.959Z,2.25
2017-01-16T01:12:43.969Z,2.14
2017-01-16T01:13:43.982Z,2.2
2017-01-16T01:14:43.986Z,2.24
2017-01-16T01:15:43.654Z,2.26
2017-01-16T01:16:44.011Z,2.26
2017-01-16T01:17:43.623Z,2.25
2017-01-16T01:18:44.034Z,2.15
2017-01-16T01:19:44.044Z,2.17
2017-01-16T01:20:44.451Z,2.24
2017-01-16T01:21:43.669Z,2.29
2017-01-16T01:22:44.084Z,2.18
2017-01-16T01:23:44.486Z,2.2
2017-01-16T01:24:44.098Z,2.31
2017-01-16T01:25:44.106Z,2.29
2017-01-16T01:26:44.117Z,2.28
2017-01-16T01:27:44.524Z,2.22
2017-01-16T01:28:43.742Z,2.22
2017-01-16T01:29:43.752Z,2.2
2017-01-16T01:30:44.166Z,2.2
2017-01-16T01:31:44.232Z,2.15
2017-01-16T01:32:43.784Z,2.25
2017-01-16T01:33:44.216Z,2.17
2017-01-16T01:34:44.204Z,2.15
2017-01-16T01:35:44.215Z,2.24
2017-01-16T01:36:44.221Z,2.24
2017-01-16T01:37:44.684Z,2.26
2017-01-16T01:38:43.848Z,2.24
2017-01-16T01:39:44.256Z,2.22
2017-01-16T01:40:43.905Z,2.29
2017-01-16T01:41:43.893Z,2.29
2017-01-16T01:42:44.338Z,2.31
2017-01-16T01:43:44.329Z,2.32
2017-01-16T01:44:44.707Z,2.33
2017-01-16T01:45:44.319Z,2.33
2017-01-16T01:46:44.333Z,2.32
2017-01-16T01:47:44.345Z,2.25
2017-01-16T01:48:44.354Z,2.38
2017-01-16T01:49:44.362Z,2.33
2017-01-16T01:50:44.375Z,2.26
2017-01-16T01:51:44.784Z,2.22
2017-01-16T01:52:44.790Z,2.25
2017-01-16T01:53:44.803Z,2.25
2017-01-16T01:54:44.425Z,2.31
2017-01-16T01:55:44.427Z,2.28
2017-01-16T01:56:44.437Z,2.2
2017-01-16T01:57:44.451Z,2.18
2017-01-16T01:58:44.875Z,2.18
2017-01-16T01:59:44.493Z,2.25
2017-01-16T02:00:44.481Z,2.17
2017-01-16T02:01:44.496Z,2.17
2017-01-16T02:02:44.503Z,2.24
2017-01-16T02:03:44.514Z,2.25
2017-01-16T02:04:44.523Z,2.28
2017-01-16T02:05:44.533Z,2.26
2017-01-16T02:06:44.150Z,2.22
2017-01-16T02:07:44.558Z,2.28
2017-01-16T02:08:44.166Z,2.15
2017-01-16T02:09:44.984Z,2.31
2017-01-16T02:10:44.991Z,2.17
2017-01-16T02:11:44.998Z,2.24
2017-01-16T02:12:44.610Z,2.2
2017-01-16T02:13:44.221Z,2.28
2017-01-16T02:14:45.031Z,2.22
2017-01-16T02:15:45.043Z,2.25
2017-01-16T02:16:44.254Z,2.17
2017-01-16T02:17:44.267Z,2.25
2017-01-16T02:18:44.278Z,2.18
2017-01-16T02:19:45.087Z,2.18
2017-01-16T02:20:44.699Z,2.31
2017-01-16T02:21:44.705Z,2.25
2017-01-16T02:22:45.118Z,2.32
2017-01-16T02:23:44.332Z,2.26
2017-01-16T02:24:44.741Z,2.26
2017-01-16T02:25:44.751Z,2.28
2017-01-16T02:26:45.162Z,2.18
2017-01-16T02:27:45.171Z,2.28
2017-01-16T02:28:44.781Z,2.31
2017-01-16T02:29:44.798Z,2.28
2017-01-16T02:30:44.804Z,2.31
2017-01-16T02:31:44.419Z,2.2
2017-01-16T02:32:44.833Z,2.26
2017-01-16T02:33:44.839Z,2.28
2017-01-16T02:34:44.848Z,2.22
2017-01-16T02:35:45.258Z,2.22
2017-01-16T02:36:44.872Z,2.26
2017-01-16T02:37:44.481Z,2.31
2017-01-16T02:38:44.492Z,2.25
2017-01-16T02:39:45.302Z,2.24
2017-01-16T02:40:44.910Z,2.31
2017-01-16T02:41:44.923Z,2.2
2017-01-16T02:42:44.934Z,2.26
2017-01-16T02:43:44.942Z,2.28
2017-01-16T02:44:44.956Z,2.24
2017-01-16T02:45:44.994Z,2.32
2017-01-16T02:46:44.579Z,2.22
2017-01-16T02:47:44.989Z,2.24
2017-01-16T02:48:45.000Z,2.26
2017-01-16T02:49:44.611Z,2.18
2017-01-16T02:50:45.421Z,2.25
2017-01-16T02:51:45.172Z,2.08
2017-01-16T02:52:45.438Z,2.14
2017-01-16T02:53:45.054Z,2.2
2017-01-16T02:54:44.665Z,2.17
2017-01-16T02:55:45.073Z,2.15
2017-01-16T02:56:45.085Z,2.13
2017-01-16T02:57:45.498Z,2.2
2017-01-16T02:58:45.110Z,2.28
2017-01-16T02:59:45.166Z,2.17
2017-01-16T03:00:44.735Z,2.24
2017-01-16T03:01:45.538Z,2.2
2017-01-16T03:02:45.150Z,2.15
2017-01-16T03:03:44.757Z,2.24
2017-01-16T03:04:45.176Z,2.15
2017-01-16T03:05:45.582Z,2.29
2017-01-16T03:06:45.192Z,2.22
2017-01-16T03:07:44.805Z,2.17
2017-01-16T03:08:45.616Z,2.31
2017-01-16T03:09:45.224Z,2.28
2017-01-16T03:10:45.683Z,2.2
2017-01-16T03:11:45.246Z,2.24
2017-01-16T03:12:45.306Z,2.22
2017-01-16T03:13:45.266Z,2.25
2017-01-16T03:14:44.903Z,2.25
2017-01-16T03:15:45.348Z,2.22
2017-01-16T03:16:45.305Z,2.25
2017-01-16T03:17:45.308Z,2.22
2017-01-16T03:18:44.918Z,2.31
2017-01-16T03:19:44.942Z,2.2
2017-01-16T03:20:44.956Z,2.17
2017-01-16T03:21:45.355Z,2.18
2017-01-16T03:22:45.767Z,2.17
2017-01-16T03:23:44.977Z,2.28
2017-01-16T03:24:45.786Z,2.25
2017-01-16T03:25:45.050Z,2.28
2017-01-16T03:26:45.010Z,2.29
2017-01-16T03:27:45.818Z,2.2
2017-01-16T03:28:45.430Z,2.25
2017-01-16T03:29:45.841Z,2.15
2017-01-16T03:30:45.104Z,2.22
2017-01-16T03:31:45.461Z,2.26
2017-01-16T03:32:45.071Z,2.31
2017-01-16T03:33:45.486Z,2.28
2017-01-16T03:34:45.495Z,2.28
2017-01-16T03:35:45.550Z,2.25
2017-01-16T03:36:45.540Z,2.18
2017-01-16T03:37:45.524Z,2.25
2017-01-16T03:38:45.933Z,2.15
2017-01-16T03:39:45.143Z,2.17
2017-01-16T03:40:45.557Z,2.13
2017-01-16T03:41:45.167Z,2.22
2017-01-16T03:42:45.582Z,2.15
2017-01-16T03:43:45.611Z,2.24
2017-01-16T03:44:45.200Z,2.2
2017-01-16T03:45:45.214Z,2.18
2017-01-16T03:46:45.618Z,2.17
2017-01-16T03:47:45.632Z,2.14
2017-01-16T03:48:45.640Z,2.15
2017-01-16T03:49:45.653Z,2.31
2017-01-16T03:50:45.665Z,2.24
2017-01-16T03:51:45.676Z,2.31
2017-01-16T03:52:46.084Z,2.2
2017-01-16T03:53:45.296Z,2.22
2017-01-16T03:54:46.103Z,2.14
2017-01-16T03:55:45.318Z,2.2
2017-01-16T03:56:46.124Z,2.22
2017-01-16T03:57:45.338Z,2.26
2017-01-16T03:58:46.149Z,2.24
2017-01-16T03:59:45.758Z,2.24
2017-01-16T04:00:45.770Z,2.25
2017-01-16T04:01:45.782Z,2.28
2017-01-16T04:02:45.791Z,2.2
2017-01-16T04:03:45.802Z,2.2
2017-01-16T04:04:45.413Z,2.28
2017-01-16T04:05:45.452Z,2.17
2017-01-16T04:06:46.231Z,2.25
2017-01-16T04:07:45.846Z,2.25
2017-01-16T04:08:45.456Z,2.14
2017-01-16T04:09:45.469Z,2.15
2017-01-16T04:10:45.479Z,2.25
2017-01-16T04:11:45.889Z,2.18
2017-01-16T04:12:46.295Z,2.08
2017-01-16T04:13:45.911Z,2.17
2017-01-16T04:14:45.523Z,2.2
2017-01-16T04:15:45.929Z,2.18
2017-01-16T04:16:45.542Z,2.24
2017-01-16T04:17:45.582Z,2.17
2017-01-16T04:18:45.560Z,2.11
2017-01-16T04:19:46.371Z,2.08
2017-01-16T04:20:45.981Z,2.14
2017-01-16T04:21:45.594Z,2.13
2017-01-16T04:22:45.602Z,2.2
2017-01-16T04:23:46.014Z,2.14
2017-01-16T04:24:46.079Z,2.14
2017-01-16T04:25:46.429Z,2.08
2017-01-16T04:26:45.654Z,2.13
2017-01-16T04:27:45.653Z,2.1
2017-01-16T04:28:46.472Z,2.24
2017-01-16T04:29:45.678Z,2.24
2017-01-16T04:30:45.687Z,2.18
2017-01-16T04:31:45.696Z,2.18
2017-01-16T04:32:45.710Z,2.22
2017-01-16T04:33:46.118Z,2.07
2017-01-16T04:34:46.528Z,2.17
2017-01-16T04:35:46.139Z,2.04
2017-01-16T04:36:45.750Z,2.1
2017-01-16T04:37:46.157Z,2.08
2017-01-16T04:38:46.565Z,2.1
2017-01-16T04:39:46.179Z,2.06
2017-01-16T04:40:46.242Z,2.08
2017-01-16T04:41:46.200Z,2.08
2017-01-16T04:42:46.212Z,2.13
2017-01-16T04:43:46.225Z,2.1
2017-01-16T04:44:45.834Z,2.11
2017-01-16T04:45:45.846Z,1.99
2017-01-16T04:46:46.656Z,2
2017-01-16T04:47:46.263Z,1.88
2017-01-16T04:48:45.869Z,1.81
2017-01-16T04:49:46.685Z,1.81
2017-01-16T04:50:45.897Z,1.92
2017-01-16T04:51:46.304Z,1.89
2017-01-16T04:52:46.711Z,1.77
2017-01-16T04:53:45.932Z,1.78
2017-01-16T04:54:46.337Z,1.76
2017-01-16T04:55:46.347Z,1.85
2017-01-16T04:56:46.355Z,1.84
2017-01-16T04:57:46.769Z,1.81
2017-01-16T04:58:45.979Z,1.84
2017-01-16T04:59:45.988Z,1.84
2017-01-16T05:00:46.799Z,1.81
2017-01-16T05:01:46.409Z,1.92
2017-01-16T05:02:46.821Z,1.92
2017-01-16T05:03:46.029Z,1.89
2017-01-16T05:04:46.439Z,2.02
2017-01-16T05:05:46.452Z,2
2017-01-16T05:06:46.061Z,2.04
2017-01-16T05:07:46.471Z,1.95
2017-01-16T05:08:46.482Z,2.08
2017-01-16T05:09:46.093Z,2.04
2017-01-16T05:10:46.103Z,2.08
2017-01-16T05:11:46.518Z,2.04
2017-01-16T05:12:46.941Z,1.91
2017-01-16T05:13:46.958Z,2
2017-01-16T05:14:46.545Z,1.99
2017-01-16T05:15:46.166Z,1.85
2017-01-16T05:16:46.573Z,1.89
2017-01-16T05:17:46.579Z,2
2017-01-16T05:18:46.190Z,2
2017-01-16T05:19:46.211Z,2
2017-01-16T05:20:46.220Z,1.95
2017-01-16T05:21:47.015Z,1.91
2017-01-16T05:22:46.231Z,1.89
2017-01-16T05:23:46.641Z,1.89
2017-01-16T05:24:46.249Z,1.91
2017-01-16T05:25:46.662Z,1.94
2017-01-16T05:26:46.721Z,1.91
2017-01-16T05:27:46.300Z,1.78
2017-01-16T05:28:46.693Z,1.71
2017-01-16T05:29:47.104Z,1.76
2017-01-16T05:30:46.716Z,1.62
2017-01-16T05:31:46.775Z,1.73
2017-01-16T05:32:46.737Z,1.62
2017-01-16T05:33:46.752Z,1.63
2017-01-16T05:34:46.754Z,1.73
2017-01-16T05:35:47.165Z,1.68
2017-01-16T05:36:47.175Z,1.73
2017-01-16T05:37:46.389Z,1.68
2017-01-16T05:38:47.196Z,1.8
2017-01-16T05:39:46.805Z,1.59
2017-01-16T05:40:47.255Z,1.68
2017-01-16T05:41:46.831Z,1.71
2017-01-16T05:42:46.449Z,1.78
2017-01-16T05:43:46.851Z,1.8
2017-01-16T05:44:46.875Z,1.73
2017-01-16T05:45:46.475Z,1.74
2017-01-16T05:46:47.279Z,1.77
2017-01-16T05:47:46.492Z,1.74
2017-01-16T05:48:46.907Z,1.89
2017-01-16T05:49:46.516Z,1.95
2017-01-16T05:50:46.929Z,1.88
2017-01-16T05:51:46.536Z,1.8
2017-01-16T05:52:47.347Z,1.78
2017-01-16T05:53:46.955Z,1.87
2017-01-16T05:54:47.367Z,1.71
2017-01-16T05:55:46.582Z,1.81
2017-01-16T05:56:47.385Z,1.74
2017-01-16T05:57:47.401Z,1.84
2017-01-16T05:58:47.019Z,1.91
2017-01-16T05:59:47.021Z,1.89
2017-01-16T06:00:47.031Z,1.95
2017-01-16T06:01:47.437Z,1.88
2017-01-16T06:02:47.474Z,1.91
2017-01-16T06:03:47.067Z,1.94
2017-01-16T06:04:47.072Z,1.78
2017-01-16T06:05:46.689Z,1.81
2017-01-16T06:06:47.094Z,1.78
2017-01-16T06:07:47.134Z,1.8
2017-01-16T06:08:47.115Z,1.92
2017-01-16T06:09:46.729Z,1.85
2017-01-16T06:10:47.142Z,1.91
2017-01-16T06:11:47.148Z,1.71
2017-01-16T06:12:46.767Z,1.77
2017-01-16T06:13:46.771Z,1.91
2017-01-16T06:14:47.585Z,1.95
2017-01-16T06:15:47.594Z,1.87
2017-01-16T06:16:47.205Z,1.78
2017-01-16T06:17:47.210Z,1.91
2017-01-16T06:18:47.224Z,1.76
2017-01-16T06:19:47.633Z,1.85
2017-01-16T06:20:47.245Z,1.85
2017-01-16T06:21:47.255Z,1.85
2017-01-16T06:22:47.667Z,1.7
2017-01-16T06:23:47.273Z,1.7
2017-01-16T06:24:47.387Z,1.77
2017-01-16T06:25:47.293Z,1.76
2017-01-16T06:26:47.306Z,1.78
2017-01-16T06:27:47.316Z,1.74
2017-01-16T06:28:47.326Z,1.81
2017-01-16T06:29:47.792Z,1.7
2017-01-16T06:30:47.754Z,1.78
2017-01-16T06:31:46.960Z,1.7
2017-01-16T06:32:47.770Z,1.74
2017-01-16T06:33:46.990Z,1.7
2017-01-16T06:34:47.467Z,1.73
2017-01-16T06:35:47.402Z,1.7
2017-01-16T06:36:47.017Z,1.87
2017-01-16T06:37:47.428Z,1.91
2017-01-16T06:38:47.033Z,1.87
2017-01-16T06:39:47.495Z,1.97
2017-01-16T06:40:47.454Z,2.04
2017-01-16T06:41:47.468Z,2.11
2017-01-16T06:42:47.080Z,2.07
2017-01-16T06:43:47.488Z,2.02
2017-01-16T06:44:47.505Z,2.06
2017-01-16T06:45:47.912Z,2.07
2017-01-16T06:46:47.520Z,2.17
2017-01-16T06:47:47.133Z,2
2017-01-16T06:48:47.542Z,1.87
2017-01-16T06:49:47.204Z,2
2017-01-16T06:50:47.563Z,2.02
2017-01-16T06:51:47.581Z,2.08
2017-01-16T06:52:47.583Z,1.94
2017-01-16T06:53:47.994Z,1.78
2017-01-16T06:54:47.260Z,1.78
2017-01-16T06:55:47.612Z,1.94
2017-01-16T06:56:47.226Z,1.92
2017-01-16T06:57:48.035Z,1.89
2017-01-16T06:58:47.247Z,1.91
2017-01-16T06:59:48.061Z,1.89
2017-01-16T07:00:47.272Z,1.97
2017-01-16T07:01:48.087Z,1.95
2017-01-16T07:02:48.096Z,1.92
2017-01-16T07:03:47.700Z,1.84
2017-01-16T07:04:48.114Z,1.84
2017-01-16T07:05:47.336Z,1.85
2017-01-16T07:06:47.354Z,1.71
2017-01-16T07:07:47.743Z,1.74
2017-01-16T07:08:47.762Z,1.76
2017-01-16T07:09:48.168Z,1.81
2017-01-16T07:10:47.780Z,1.66
2017-01-16T07:11:48.184Z,1.7
2017-01-16T07:12:47.405Z,1.71
2017-01-16T07:13:47.415Z,1.68
2017-01-16T07:14:47.822Z,1.56
2017-01-16T07:15:48.229Z,1.63
2017-01-16T07:16:47.838Z,1.58
2017-01-16T07:17:48.251Z,1.56
2017-01-16T07:18:48.261Z,1.59
2017-01-16T07:19:47.878Z,1.66
2017-01-16T07:20:48.283Z,1.73
2017-01-16T07:21:47.494Z,1.71
2017-01-16T07:22:47.908Z,1.7
2017-01-16T07:23:47.913Z,1.73
2017-01-16T07:24:47.921Z,1.91
2017-01-16T07:25:47.932Z,1.81
2017-01-16T07:26:48.345Z,1.76
2017-01-16T07:27:48.408Z,1.74
2017-01-16T07:28:47.569Z,1.84
2017-01-16T07:29:47.576Z,1.88
2017-01-16T07:30:48.403Z,1.91
2017-01-16T07:31:48.401Z,1.91
2017-01-16T07:32:48.006Z,1.88
2017-01-16T07:33:48.016Z,1.88
2017-01-16T07:34:48.429Z,1.94
2017-01-16T07:35:48.040Z,2
2017-01-16T07:36:47.652Z,1.91
2017-01-16T07:37:48.059Z,1.95
2017-01-16T07:38:48.474Z,1.94
2017-01-16T07:39:48.081Z,1.99
2017-01-16T07:40:47.694Z,1.94
2017-01-16T07:41:48.500Z,1.94
2017-01-16T07:42:48.213Z,1.92
2017-01-16T07:43:48.128Z,2
2017-01-16T07:44:47.734Z,2.02
2017-01-16T07:45:48.145Z,1.94
2017-01-16T07:46:48.154Z,1.97
2017-01-16T07:47:48.561Z,1.95
2017-01-16T07:48:48.234Z,1.92
2017-01-16T07:49:48.186Z,1.94
2017-01-16T07:50:48.196Z,2.06
2017-01-16T07:51:48.217Z,2.02
2017-01-16T07:52:48.214Z,2.02
2017-01-16T07:53:48.280Z,2.06
2017-01-16T07:54:48.244Z,2.04
2017-01-16T07:55:48.245Z,2
2017-01-16T07:56:47.865Z,2.08
2017-01-16T07:57:48.665Z,2.08
2017-01-16T07:58:47.980Z,2.06
2017-01-16T07:59:47.890Z,1.91
2017-01-16T08:00:48.309Z,1.94
2017-01-16T08:01:48.312Z,1.99
2017-01-16T08:02:48.321Z,1.95
2017-01-16T08:03:48.331Z,1.97
2017-01-16T08:04:48.739Z,1.87
2017-01-16T08:05:48.358Z,1.95
2017-01-16T08:06:48.763Z,1.95
2017-01-16T08:07:48.771Z,2.06
2017-01-16T08:08:48.782Z,2.15
2017-01-16T08:09:47.998Z,2.14
2017-01-16T08:10:48.802Z,2.11
2017-01-16T08:11:48.811Z,2
2017-01-16T08:12:48.426Z,2
2017-01-16T08:13:48.433Z,1.84
2017-01-16T08:14:48.841Z,1.97
2017-01-16T08:15:48.058Z,1.97
2017-01-16T08:16:48.465Z,1.94
2017-01-16T08:17:48.873Z,1.91
2017-01-16T08:18:48.485Z,2
2017-01-16T08:19:48.497Z,1.91
2017-01-16T08:20:48.109Z,1.91
2017-01-16T08:21:48.517Z,1.87
2017-01-16T08:22:48.129Z,1.94
2017-01-16T08:23:48.540Z,1.91
2017-01-16T08:24:48.945Z,2
2017-01-16T08:25:48.569Z,1.94
2017-01-16T08:26:48.571Z,2.08
2017-01-16T08:27:48.580Z,2.06
2017-01-16T08:28:48.994Z,2
2017-01-16T08:29:49.002Z,2.06
2017-01-16T08:30:48.218Z,2.04
2017-01-16T08:31:49.022Z,1.99
2017-01-16T08:32:48.652Z,1.94
2017-01-16T08:33:48.245Z,1.92
2017-01-16T08:34:49.056Z,2.06
2017-01-16T08:35:48.266Z,2.1
2017-01-16T08:36:48.674Z,2.13
2017-01-16T08:37:48.291Z,2.15
2017-01-16T08:38:49.100Z,2.13
2017-01-16T08:39:48.711Z,2.04
2017-01-16T08:40:48.722Z,2.07
2017-01-16T08:41:48.342Z,2.04
2017-01-16T08:42:49.135Z,1.88
2017-01-16T08:43:48.754Z,1.87
2017-01-16T08:44:49.172Z,1.91
2017-01-16T08:45:48.806Z,1.91
2017-01-16T08:46:48.886Z,1.94
2017-01-16T08:47:49.198Z,1.94
2017-01-16T08:48:49.237Z,1.99
2017-01-16T08:49:48.815Z,1.91
2017-01-16T08:50:48.829Z,1.92
2017-01-16T08:51:49.321Z,1.94
2017-01-16T08:52:49.245Z,2.02
2017-01-16T08:53:48.864Z,2.07
2017-01-16T08:54:48.871Z,2.02
2017-01-16T08:55:48.897Z,2.07
2017-01-16T08:56:48.906Z,2.11
2017-01-16T08:57:48.922Z,2.1
2017-01-16T08:58:48.530Z,2.2
2017-01-16T08:59:48.955Z,2.07
2017-01-16T09:00:48.556Z,2.14
2017-01-16T09:01:48.948Z,2.22
2017-01-16T09:02:48.607Z,2.25
2017-01-16T09:03:48.569Z,2.14
2017-01-16T09:04:48.578Z,2.2
2017-01-16T09:05:48.593Z,2.14
2017-01-16T09:06:48.609Z,2.28
2017-01-16T09:07:49.011Z,2.25
2017-01-16T09:08:49.416Z,2.31
2017-01-16T09:09:49.432Z,2.36
2017-01-16T09:10:48.648Z,2.33
2017-01-16T09:11:49.057Z,2.29
2017-01-16T09:12:49.064Z,2.32
2017-01-16T09:13:49.078Z,2.36
2017-01-16T09:14:48.701Z,2.33
2017-01-16T09:15:49.103Z,2.28
2017-01-16T09:16:49.116Z,2.33
2017-01-16T09:17:49.145Z,2.38
2017-01-16T09:18:48.790Z,2.49
2017-01-16T09:19:49.538Z,2.43
2017-01-16T09:20:49.548Z,2.39
2017-01-16T09:21:49.167Z,2.39
2017-01-16T09:22:49.173Z,2.47
2017-01-16T09:23:49.235Z,2.57
2017-01-16T09:24:49.210Z,2.67
2017-01-16T09:25:49.605Z,2.72
2017-01-16T09:26:49.619Z,2.61
2017-01-16T09:27:49.627Z,2.71
2017-01-16T09:28:49.294Z,2.61
2017-01-16T09:29:49.650Z,2.53
2017-01-16T09:30:49.264Z,2.62
2017-01-16T09:31:49.671Z,2.67
2017-01-16T09:32:49.686Z,2.77
2017-01-16T09:33:49.796Z,2.72
2017-01-16T09:34:49.313Z,2.72
2017-01-16T09:35:49.318Z,2.8
2017-01-16T09:36:49.331Z,2.82
2017-01-16T09:37:49.746Z,2.79
2017-01-16T09:38:49.759Z,2.86
2017-01-16T09:39:49.362Z,2.92
2017-01-16T09:40:49.775Z,2.86
2017-01-16T09:41:48.999Z,2.85
2017-01-16T09:42:49.026Z,2.8
2017-01-16T09:43:49.008Z,2.85
2017-01-16T09:44:49.418Z,2.67
2017-01-16T09:45:49.431Z,2.64
2017-01-16T09:46:49.447Z,2.64
2017-01-16T09:47:49.454Z,2.61
2017-01-16T09:48:49.070Z,2.68
2017-01-16T09:49:49.887Z,2.85
2017-01-16T09:50:49.587Z,2.95
2017-01-16T09:51:49.100Z,2.89
2017-01-16T09:52:49.511Z,2.89
2017-01-16T09:53:49.523Z,2.89
2017-01-16T09:54:49.133Z,2.92
2017-01-16T09:55:49.543Z,2.97
2017-01-16T09:56:49.558Z,2.9
2017-01-16T09:57:49.964Z,2.87
2017-01-16T09:58:49.178Z,2.85
2017-01-16T09:59:49.188Z,2.9
2017-01-16T10:00:49.206Z,2.83
2017-01-16T10:01:49.611Z,2.79
2017-01-16T10:02:49.625Z,2.87
2017-01-16T10:03:50.040Z,2.83
2017-01-16T10:04:49.647Z,2.86
2017-01-16T10:05:49.657Z,2.8
2017-01-16T10:06:49.675Z,2.8
2017-01-16T10:07:49.682Z,2.69
2017-01-16T10:08:49.292Z,2.6
2017-01-16T10:09:49.807Z,2.54
2017-01-16T10:10:49.317Z,2.62
2017-01-16T10:11:50.123Z,2.69
2017-01-16T10:12:49.341Z,2.71
2017-01-16T10:13:49.346Z,2.83
2017-01-16T10:14:49.755Z,2.71
2017-01-16T10:15:49.769Z,2.74
2017-01-16T10:16:49.404Z,2.8
2017-01-16T10:17:50.193Z,2.89
2017-01-16T10:18:49.404Z,2.71
2017-01-16T10:19:50.212Z,2.71
2017-01-16T10:20:50.227Z,2.69
2017-01-16T10:21:49.838Z,2.67
2017-01-16T10:22:49.846Z,2.68
2017-01-16T10:23:49.469Z,2.8
2017-01-16T10:24:49.883Z,2.75
2017-01-16T10:25:49.885Z,2.83
2017-01-16T10:26:49.496Z,2.87
2017-01-16T10:27:50.303Z,2.68
2017-01-16T10:28:49.914Z,2.67
2017-01-16T10:29:49.945Z,2.65
2017-01-16T10:30:50.348Z,2.51
2017-01-16T10:31:50.551Z,2.46
2017-01-16T10:32:50.353Z,2.57
2017-01-16T10:33:49.987Z,2.56
2017-01-16T10:34:50.031Z,2.56
2017-01-16T10:35:50.421Z,2.61
2017-01-16T10:36:50.006Z,2.57
2017-01-16T10:37:50.016Z,2.62
2017-01-16T10:38:50.024Z,2.71
2017-01-16T10:39:50.042Z,2.69
2017-01-16T10:40:50.045Z,2.64
2017-01-16T10:41:50.060Z,2.39
2017-01-16T10:42:49.676Z,2.43
2017-01-16T10:43:50.483Z,2.36
2017-01-16T10:44:50.097Z,2.53
2017-01-16T10:45:50.103Z,2.53
2017-01-16T10:46:49.717Z,2.5
2017-01-16T10:47:50.132Z,2.39
2017-01-16T10:48:50.138Z,2.44
2017-01-16T10:49:49.757Z,2.42
2017-01-16T10:50:50.559Z,2.43
2017-01-16T10:51:50.168Z,2.51
2017-01-16T10:52:50.579Z,2.47
2017-01-16T10:53:50.596Z,2.5
2017-01-16T10:54:50.604Z,2.51
2017-01-16T10:55:50.218Z,2.43
2017-01-16T10:56:50.625Z,2.46
2017-01-16T10:57:50.635Z,2.57
2017-01-16T10:58:50.244Z,2.61
2017-01-16T10:59:50.261Z,2.56
2017-01-16T11:00:50.271Z,2.54
2017-01-16T11:01:50.280Z,2.6
2017-01-16T11:02:49.890Z,2.67
2017-01-16T11:03:49.904Z,2.6
2017-01-16T11:04:49.913Z,2.67
2017-01-16T11:05:50.370Z,2.67
2017-01-16T11:06:50.337Z,2.71
2017-01-16T11:07:49.962Z,2.69
2017-01-16T11:08:50.352Z,2.72
2017-01-16T11:09:50.363Z,2.82
2017-01-16T11:10:50.426Z,2.69
2017-01-16T11:11:50.390Z,2.64
2017-01-16T11:12:50.396Z,2.65
2017-01-16T11:13:50.014Z,2.62
2017-01-16T11:14:50.420Z,2.6
2017-01-16T11:15:50.432Z,2.53
2017-01-16T11:16:50.445Z,2.53
2017-01-16T11:17:50.851Z,2.6
2017-01-16T11:18:50.473Z,2.69
2017-01-16T11:19:50.492Z,2.79
2017-01-16T11:20:50.887Z,2.82
2017-01-16T11:21:50.503Z,2.82
2017-01-16T11:22:50.907Z,2.83
2017-01-16T11:23:50.520Z,2.68
2017-01-16T11:24:50.130Z,2.65
2017-01-16T11:25:50.544Z,2.62
2017-01-16T11:26:50.153Z,2.61
2017-01-16T11:27:50.662Z,2.46
2017-01-16T11:28:50.580Z,2.61
2017-01-16T11:29:50.585Z,2.56
2017-01-16T11:30:50.995Z,2.69
2017-01-16T11:31:50.615Z,2.77
2017-01-16T11:32:50.223Z,2.8
2017-01-16T11:33:50.631Z,2.68
2017-01-16T11:34:50.300Z,2.68
2017-01-16T11:35:50.668Z,2.74
2017-01-16T11:36:50.675Z,2.74
2017-01-16T11:37:50.277Z,2.77
2017-01-16T11:38:50.687Z,2.74
2017-01-16T11:39:52.140Z,2.87
2017-01-16T11:40:50.712Z,2.83
2017-01-16T11:41:50.740Z,2.8
2017-01-16T11:42:50.731Z,2.65
2017-01-16T11:43:50.742Z,2.54
2017-01-16T11:44:50.452Z,2.69
2017-01-16T11:45:50.764Z,2.49
2017-01-16T11:46:50.778Z,2.53
2017-01-16T11:47:50.789Z,2.61
2017-01-16T11:48:50.411Z,2.67
2017-01-16T11:49:50.814Z,2.64
2017-01-16T11:50:51.218Z,2.6
2017-01-16T11:51:50.833Z,2.69
2017-01-16T11:52:50.445Z,2.68
2017-01-16T11:53:50.487Z,2.71
2017-01-16T11:54:50.520Z,2.68
2017-01-16T11:55:50.481Z,2.82
2017-01-16T11:56:50.886Z,2.85
2017-01-16T11:57:50.897Z,2.9
2017-01-16T11:58:50.512Z,2.83
2017-01-16T11:59:51.419Z,2.87
2017-01-16T12:00:50.952Z,2.83
2017-01-16T12:01:50.946Z,2.82
2017-01-16T12:02:51.360Z,2.97
2017-01-16T12:03:50.567Z,3.07
2017-01-16T12:04:50.983Z,3.07
2017-01-16T12:05:50.992Z,3.04
2017-01-16T12:06:51.006Z,3.05
2017-01-16T12:07:51.413Z,3.05
2017-01-16T12:08:51.027Z,3.05
2017-01-16T12:09:50.637Z,3
2017-01-16T12:10:51.049Z,3.08
2017-01-16T12:11:51.057Z,3.01
2017-01-16T12:12:51.073Z,3
2017-01-16T12:13:51.483Z,3.01
2017-01-16T12:14:50.696Z,2.85
2017-01-16T12:15:51.106Z,2.9
2017-01-16T12:16:51.117Z,2.98
2017-01-16T12:17:51.129Z,2.83
2017-01-16T12:18:51.138Z,2.95
2017-01-16T12:19:51.150Z,2.89
2017-01-16T12:20:51.558Z,2.89
2017-01-16T12:21:51.175Z,2.93
2017-01-16T12:22:51.185Z,2.92
2017-01-16T12:23:51.199Z,2.89
2017-01-16T12:24:51.605Z,2.86
2017-01-16T12:25:51.213Z,2.93
2017-01-16T12:26:51.236Z,3.03
2017-01-16T12:27:51.243Z,2.97
2017-01-16T12:28:51.258Z,2.87
2017-01-16T12:29:50.866Z,2.93
2017-01-16T12:30:51.275Z,2.97
2017-01-16T12:31:51.287Z,3.03
2017-01-16T12:32:51.297Z,3.07
2017-01-16T12:33:51.710Z,3.03
2017-01-16T12:34:51.720Z,2.89
2017-01-16T12:35:51.335Z,3.05
2017-01-16T12:36:51.345Z,3.05
2017-01-16T12:37:51.355Z,3.03
2017-01-16T12:38:51.365Z,2.97
2017-01-16T12:39:51.777Z,2.97
2017-01-16T12:40:51.787Z,2.9
2017-01-16T12:41:51.848Z,2.87
2017-01-16T12:42:51.016Z,2.83
2017-01-16T12:43:51.823Z,2.87
2017-01-16T12:44:51.832Z,2.87
2017-01-16T12:45:51.049Z,2.85
2017-01-16T12:46:51.506Z,2.89
2017-01-16T12:47:51.469Z,2.92
2017-01-16T12:48:51.081Z,3.01
2017-01-16T12:49:51.889Z,2.87
2017-01-16T12:50:51.506Z,3.07
2017-01-16T12:51:51.514Z,3.11
2017-01-16T12:52:51.975Z,3.22
2017-01-16T12:53:51.151Z,2.98
2017-01-16T12:54:51.162Z,3.18
2017-01-16T12:55:51.165Z,3.21
2017-01-16T12:56:51.573Z,3.25
2017-01-16T12:57:51.634Z,3.18
2017-01-16T12:58:51.593Z,3.26
2017-01-16T12:59:52.014Z,3.28
2017-01-16T13:00:51.618Z,3.32
2017-01-16T13:01:51.629Z,3.36
2017-01-16T13:02:51.647Z,3.22
2017-01-16T13:03:51.253Z,3.16
2017-01-16T13:04:51.686Z,3.1
2017-01-16T13:05:51.276Z,3.07
2017-01-16T13:06:52.087Z,3
2017-01-16T13:07:51.352Z,2.98
2017-01-16T13:08:51.313Z,3.1
2017-01-16T13:09:51.322Z,3.14
2017-01-16T13:10:51.336Z,3.19
2017-01-16T13:11:52.146Z,3.18
2017-01-16T13:12:52.157Z,3.16
2017-01-16T13:13:51.773Z,3.04
2017-01-16T13:14:51.783Z,3.1
2017-01-16T13:15:51.792Z,3.18
2017-01-16T13:16:51.804Z,3.05
2017-01-16T13:17:51.415Z,3.07
2017-01-16T13:18:51.938Z,3.19
2017-01-16T13:19:51.840Z,3.26
2017-01-16T13:20:51.855Z,3.26
2017-01-16T13:21:51.863Z,3.34
2017-01-16T13:22:51.479Z,3.36